4XCWG LLHA-LLHA
Flight info
| Callsign | 4XCWG |
|---|---|
| Flight time | 0h 45m |
| Altitude | 800 |
| Route | CVFR |
| Aircraft | C172/L-VD/A |
Departure
| Time | 2026-04-11 17:28 |
|---|---|
| Airport | Uri Michaeli Haifa International Airport (LLHA) |
Arrival
| Time | 2026-04-11 18:13 |
|---|---|
| Airport | Uri Michaeli Haifa International Airport (LLHA) |
| Time | Latitude | Longitude | Altitude | Speed | Heading |
|---|---|---|---|---|---|
| 2026-04-11 17:19 | 32.17886 | 34.83764 | 116 ft | 0 kts | 290° |
| 2026-04-11 17:20 | 32.81390 | 35.04125 | 16 ft | 0 kts | 251° |
| 2026-04-11 17:24 | 32.81390 | 35.04122 | 16 ft | 5 kts | 285° |
| 2026-04-11 17:24 | 32.81381 | 35.04173 | 15 ft | 6 kts | 72° |
| 2026-04-11 17:24 | 32.81382 | 35.04175 | 15 ft | 0 kts | 71° |
| 2026-04-11 17:25 | 32.81382 | 35.04177 | 14 ft | 3 kts | 72° |
| 2026-04-11 17:26 | 32.81296 | 35.04251 | 14 ft | 30 kts | 161° |
| 2026-04-11 17:26 | 32.81017 | 35.04371 | 12 ft | 45 kts | 159° |
| 2026-04-11 17:26 | 32.80755 | 35.04487 | 10 ft | 37 kts | 157° |
| 2026-04-11 17:26 | 32.80554 | 35.04586 | 8 ft | 23 kts | 187° |
| 2026-04-11 17:27 | 32.80505 | 35.04595 | 7 ft | 5 kts | 15° |
| 2026-04-11 17:27 | 32.80557 | 35.04574 | 8 ft | 26 kts | 339° |
| 2026-04-11 17:27 | 32.80888 | 35.04423 | 20 ft | 72 kts | 334° |
| 2026-04-11 17:27 | 32.81396 | 35.04253 | 225 ft | 73 kts | 335° |
| 2026-04-11 17:28 | 32.81721 | 35.04010 | 433 ft | 70 kts | 313° |
| 2026-04-11 17:28 | 32.82144 | 35.03685 | 676 ft | 76 kts | 359° |
| 2026-04-11 17:28 | 32.82615 | 35.04064 | 947 ft | 75 kts | 32° |
| 2026-04-11 17:28 | 32.82704 | 35.04707 | 980 ft | 110 kts | 133° |
| 2026-04-11 17:29 | 32.82168 | 35.05409 | 1179 ft | 116 kts | 135° |
| 2026-04-11 17:29 | 32.81649 | 35.06094 | 1508 ft | 109 kts | 131° |
| 2026-04-11 17:29 | 32.81104 | 35.06894 | 1480 ft | 121 kts | 130° |
| 2026-04-11 17:29 | 32.80617 | 35.07667 | 1292 ft | 131 kts | 126° |
| 2026-04-11 17:30 | 32.79893 | 35.08198 | 1041 ft | 123 kts | 201° |
| 2026-04-11 17:30 | 32.79243 | 35.07677 | 795 ft | 101 kts | 226° |
| 2026-04-11 17:30 | 32.78780 | 35.07136 | 683 ft | 88 kts | 233° |
| 2026-04-11 17:30 | 32.78365 | 35.06533 | 535 ft | 98 kts | 237° |
| 2026-04-11 17:31 | 32.78240 | 35.05868 | 458 ft | 94 kts | 325° |
| 2026-04-11 17:31 | 32.78800 | 35.05511 | 420 ft | 87 kts | 330° |
| 2026-04-11 17:31 | 32.79322 | 35.05204 | 375 ft | 85 kts | 331° |
| 2026-04-11 17:31 | 32.79849 | 35.04877 | 317 ft | 77 kts | 335° |
| 2026-04-11 17:32 | 32.80304 | 35.04692 | 88 ft | 65 kts | 335° |
| 2026-04-11 17:32 | 32.80699 | 35.04511 | 11 ft | 57 kts | 334° |
| 2026-04-11 17:32 | 32.81085 | 35.04323 | 44 ft | 72 kts | 337° |
| 2026-04-11 17:32 | 32.81567 | 35.04123 | 247 ft | 75 kts | 337° |
| 2026-04-11 17:33 | 32.82049 | 35.03944 | 488 ft | 75 kts | 341° |
| 2026-04-11 17:33 | 32.82657 | 35.03852 | 556 ft | 97 kts | 18° |
| 2026-04-11 17:33 | 32.82893 | 35.04582 | 784 ft | 109 kts | 110° |
| 2026-04-11 17:33 | 32.82561 | 35.05424 | 1001 ft | 115 kts | 123° |
| 2026-04-11 17:34 | 32.82029 | 35.06146 | 1083 ft | 120 kts | 137° |
| 2026-04-11 17:34 | 32.81435 | 35.06897 | 1083 ft | 130 kts | 138° |
| 2026-04-11 17:34 | 32.80648 | 35.07364 | 1164 ft | 126 kts | 166° |
| 2026-04-11 17:34 | 32.79827 | 35.07662 | 1076 ft | 115 kts | 172° |
| 2026-04-11 17:35 | 32.79168 | 35.07446 | 1014 ft | 101 kts | 224° |
| 2026-04-11 17:35 | 32.78676 | 35.06902 | 1051 ft | 96 kts | 234° |
| 2026-04-11 17:35 | 32.78635 | 35.06189 | 850 ft | 90 kts | 302° |
| 2026-04-11 17:35 | 32.78914 | 35.05540 | 636 ft | 87 kts | 301° |
| 2026-04-11 17:36 | 32.79384 | 35.05101 | 448 ft | 83 kts | 335° |
| 2026-04-11 17:36 | 32.79852 | 35.04891 | 243 ft | 66 kts | 337° |
| 2026-04-11 17:36 | 32.80268 | 35.04698 | 88 ft | 67 kts | 334° |
| 2026-04-11 17:36 | 32.80684 | 35.04515 | 10 ft | 51 kts | 335° |
| 2026-04-11 17:37 | 32.81013 | 35.04361 | 43 ft | 54 kts | 334° |
| 2026-04-11 17:37 | 32.81377 | 35.04220 | 120 ft | 57 kts | 333° |
| 2026-04-11 17:37 | 32.81800 | 35.03995 | 168 ft | 81 kts | 333° |
| 2026-04-11 17:37 | 32.82383 | 35.03829 | 386 ft | 90 kts | 3° |
| 2026-04-11 17:38 | 32.82781 | 35.04407 | 618 ft | 108 kts | 77° |
| 2026-04-11 17:38 | 32.82497 | 35.05243 | 705 ft | 120 kts | 149° |
| 2026-04-11 17:38 | 32.81864 | 35.05790 | 1008 ft | 105 kts | 143° |
| 2026-04-11 17:38 | 32.81247 | 35.06350 | 1099 ft | 114 kts | 147° |
| 2026-04-11 17:39 | 32.80561 | 35.06854 | 1154 ft | 122 kts | 165° |
| 2026-04-11 17:39 | 32.79759 | 35.07183 | 1114 ft | 122 kts | 161° |
| 2026-04-11 17:39 | 32.78941 | 35.07399 | 1018 ft | 117 kts | 199° |
| 2026-04-11 17:39 | 32.78457 | 35.06775 | 892 ft | 99 kts | 262° |
| 2026-04-11 17:40 | 32.78535 | 35.06261 | 667 ft | 96 kts | 293° |
| 2026-04-11 17:40 | 32.78817 | 35.05628 | 527 ft | 78 kts | 305° |
| 2026-04-11 17:40 | 32.79235 | 35.05206 | 384 ft | 82 kts | 328° |
| 2026-04-11 17:40 | 32.79694 | 35.04961 | 220 ft | 70 kts | 336° |
| 2026-04-11 17:41 | 32.80140 | 35.04777 | 110 ft | 62 kts | 336° |
| 2026-04-11 17:41 | 32.80553 | 35.04582 | 26 ft | 65 kts | 333° |
| 2026-04-11 17:41 | 32.80926 | 35.04401 | 13 ft | 62 kts | 337° |
| 2026-04-11 17:41 | 32.81366 | 35.04208 | 115 ft | 74 kts | 340° |
| 2026-04-11 17:42 | 32.81892 | 35.04041 | 318 ft | 82 kts | 339° |
| 2026-04-11 17:42 | 32.82431 | 35.03820 | 586 ft | 88 kts | 351° |
| 2026-04-11 17:42 | 32.83040 | 35.04218 | 654 ft | 116 kts | 36° |
| 2026-04-11 17:43 | 32.82226 | 35.05493 | 862 ft | 119 kts | 150° |
| 2026-04-11 17:43 | 32.81552 | 35.06000 | 938 ft | 112 kts | 152° |
| 2026-04-11 17:43 | 32.80849 | 35.06491 | 961 ft | 122 kts | 159° |
| 2026-04-11 17:43 | 32.80056 | 35.06800 | 1034 ft | 115 kts | 185° |
| 2026-04-11 17:44 | 32.79355 | 35.06431 | 872 ft | 109 kts | 218° |
| 2026-04-11 17:44 | 32.78881 | 35.05817 | 677 ft | 90 kts | 253° |
| 2026-04-11 17:44 | 32.79128 | 35.05280 | 510 ft | 73 kts | 324° |
| 2026-04-11 17:44 | 32.79548 | 35.05028 | 313 ft | 65 kts | 332° |
| 2026-04-11 17:45 | 32.79976 | 35.04830 | 170 ft | 67 kts | 334° |
| 2026-04-11 17:45 | 32.80391 | 35.04650 | 63 ft | 63 kts | 338° |
| 2026-04-11 17:45 | 32.80747 | 35.04484 | 10 ft | 56 kts | 339° |
| 2026-04-11 17:45 | 32.81194 | 35.04308 | 114 ft | 74 kts | 335° |
| 2026-04-11 17:46 | 32.81662 | 35.04093 | 389 ft | 74 kts | 332° |
| 2026-04-11 17:46 | 32.82188 | 35.03841 | 572 ft | 88 kts | 348° |
| 2026-04-11 17:46 | 32.82788 | 35.04086 | 727 ft | 107 kts | 36° |
| 2026-04-11 17:46 | 32.82767 | 35.04968 | 692 ft | 129 kts | 144° |
| 2026-04-11 17:47 | 32.82056 | 35.05573 | 804 ft | 124 kts | 148° |
| 2026-04-11 17:47 | 32.81306 | 35.06136 | 782 ft | 129 kts | 153° |
| 2026-04-11 17:47 | 32.80564 | 35.06620 | 1000 ft | 118 kts | 155° |
| 2026-04-11 17:47 | 32.79832 | 35.07115 | 904 ft | 122 kts | 150° |
| 2026-04-11 17:48 | 32.78513 | 35.06992 | 692 ft | 100 kts | 238° |
| 2026-04-11 17:48 | 32.78312 | 35.06234 | 528 ft | 98 kts | 288° |
| 2026-04-11 17:48 | 32.78646 | 35.05565 | 490 ft | 88 kts | 298° |
| 2026-04-11 17:49 | 32.79586 | 35.04987 | 231 ft | 80 kts | 336° |
| 2026-04-11 17:49 | 32.80506 | 35.04601 | 27 ft | 60 kts | 335° |
| 2026-04-11 17:50 | 32.80860 | 35.04432 | 13 ft | 60 kts | 340° |
| 2026-04-11 17:50 | 32.81297 | 35.04268 | 79 ft | 78 kts | 338° |
| 2026-04-11 17:50 | 32.81837 | 35.04010 | 276 ft | 84 kts | 336° |
| 2026-04-11 17:50 | 32.82464 | 35.03928 | 433 ft | 105 kts | 27° |
| 2026-04-11 17:51 | 32.82686 | 35.04748 | 573 ft | 116 kts | 117° |
| 2026-04-11 17:51 | 32.81418 | 35.05972 | 631 ft | 116 kts | 154° |
| 2026-04-11 17:51 | 32.80705 | 35.06388 | 575 ft | 113 kts | 161° |
| 2026-04-11 17:52 | 32.79960 | 35.06700 | 467 ft | 112 kts | 168° |
| 2026-04-11 17:52 | 32.79349 | 35.07233 | 371 ft | 110 kts | 144° |
| 2026-04-11 17:52 | 32.78780 | 35.07106 | 375 ft | 91 kts | 232° |
| 2026-04-11 17:52 | 32.78396 | 35.06529 | 348 ft | 86 kts | 253° |
| 2026-04-11 17:53 | 32.78536 | 35.05910 | 335 ft | 81 kts | 303° |
| 2026-04-11 17:53 | 32.78921 | 35.05409 | 318 ft | 82 kts | 320° |
| 2026-04-11 17:53 | 32.79386 | 35.05043 | 271 ft | 82 kts | 342° |
| 2026-04-11 17:53 | 32.79848 | 35.04876 | 192 ft | 67 kts | 336° |
| 2026-04-11 17:54 | 32.80298 | 35.04689 | 96 ft | 69 kts | 335° |
| 2026-04-11 17:54 | 32.80723 | 35.04505 | 10 ft | 53 kts | 336° |
| 2026-04-11 17:54 | 32.81076 | 35.04346 | 21 ft | 61 kts | 331° |
| 2026-04-11 17:54 | 32.81453 | 35.04159 | 154 ft | 56 kts | 332° |
| 2026-04-11 17:55 | 32.81900 | 35.03966 | 221 ft | 80 kts | 336° |
| 2026-04-11 17:55 | 32.82510 | 35.03908 | 381 ft | 100 kts | 19° |
| 2026-04-11 17:55 | 32.82800 | 35.04667 | 510 ft | 113 kts | 114° |
| 2026-04-11 17:55 | 32.82311 | 35.05332 | 741 ft | 103 kts | 140° |
| 2026-04-11 17:56 | 32.81750 | 35.05905 | 874 ft | 111 kts | 146° |
| 2026-04-11 17:56 | 32.81045 | 35.06374 | 923 ft | 120 kts | 152° |
| 2026-04-11 17:56 | 32.80337 | 35.06926 | 994 ft | 124 kts | 147° |
| 2026-04-11 17:56 | 32.79616 | 35.07466 | 938 ft | 119 kts | 164° |
| 2026-04-11 17:57 | 32.78868 | 35.07338 | 841 ft | 110 kts | 211° |
| 2026-04-11 17:57 | 32.78281 | 35.06801 | 671 ft | 96 kts | 229° |
| 2026-04-11 17:57 | 32.78202 | 35.06176 | 508 ft | 80 kts | 315° |
| 2026-04-11 17:57 | 32.78636 | 35.05749 | 397 ft | 79 kts | 322° |
| 2026-04-11 17:58 | 32.79079 | 35.05361 | 329 ft | 80 kts | 324° |
| 2026-04-11 17:58 | 32.79579 | 35.05046 | 249 ft | 82 kts | 333° |
| 2026-04-11 17:58 | 32.80102 | 35.04754 | 149 ft | 86 kts | 335° |
| 2026-04-11 17:58 | 32.80585 | 35.04564 | 14 ft | 60 kts | 337° |
| 2026-04-11 17:59 | 32.80911 | 35.04411 | 12 ft | 59 kts | 341° |
| 2026-04-11 17:59 | 32.81398 | 35.04343 | 160 ft | 76 kts | 23° |
| 2026-04-11 17:59 | 32.81924 | 35.04465 | 251 ft | 91 kts | 324° |
| 2026-04-11 17:59 | 32.82534 | 35.04068 | 372 ft | 104 kts | 332° |
| 2026-04-11 18:00 | 32.83065 | 35.04467 | 396 ft | 129 kts | 108° |
| 2026-04-11 18:00 | 32.82452 | 35.05127 | 572 ft | 119 kts | 148° |
| 2026-04-11 18:00 | 32.81752 | 35.05710 | 651 ft | 122 kts | 146° |
| 2026-04-11 18:00 | 32.81125 | 35.06311 | 744 ft | 109 kts | 144° |
| 2026-04-11 18:01 | 32.80496 | 35.06761 | 709 ft | 107 kts | 169° |
| 2026-04-11 18:01 | 32.79765 | 35.07022 | 581 ft | 107 kts | 152° |
| 2026-04-11 18:01 | 32.79139 | 35.07394 | 540 ft | 97 kts | 200° |
| 2026-04-11 18:01 | 32.78684 | 35.06845 | 408 ft | 94 kts | 241° |
| 2026-04-11 18:02 | 32.78339 | 35.06213 | 429 ft | 85 kts | 225° |
| 2026-04-11 18:02 | 32.77741 | 35.06148 | 431 ft | 96 kts | 147° |
| 2026-04-11 18:02 | 32.77898 | 35.06556 | 394 ft | 92 kts | 304° |
| 2026-04-11 18:02 | 32.78185 | 35.05840 | 343 ft | 90 kts | 293° |
| 2026-04-11 18:03 | 32.78529 | 35.05389 | 247 ft | 69 kts | 353° |
| 2026-04-11 18:03 | 32.78954 | 35.05241 | 238 ft | 63 kts | 335° |
| 2026-04-11 18:03 | 32.79354 | 35.05053 | 285 ft | 69 kts | 338° |
| 2026-04-11 18:03 | 32.79805 | 35.04895 | 210 ft | 68 kts | 338° |
| 2026-04-11 18:04 | 32.80252 | 35.04703 | 108 ft | 67 kts | 337° |
| 2026-04-11 18:04 | 32.80691 | 35.04513 | 17 ft | 66 kts | 335° |
| 2026-04-11 18:04 | 32.81115 | 35.04330 | 30 ft | 70 kts | 336° |
| 2026-04-11 18:04 | 32.81635 | 35.04101 | 166 ft | 84 kts | 336° |
| 2026-04-11 18:05 | 32.82199 | 35.03837 | 372 ft | 93 kts | 338° |
| 2026-04-11 18:05 | 32.82250 | 35.03816 | 389 ft | 95 kts | 340° |
| 2026-04-11 18:05 | 32.82732 | 35.03969 | 467 ft | 113 kts | 47° |
| 2026-04-11 18:05 | 32.82925 | 35.04859 | 517 ft | 124 kts | 124° |
| 2026-04-11 18:06 | 32.82278 | 35.05442 | 619 ft | 111 kts | 152° |
| 2026-04-11 18:06 | 32.81589 | 35.05863 | 523 ft | 113 kts | 159° |
| 2026-04-11 18:06 | 32.80908 | 35.06206 | 706 ft | 100 kts | 160° |
| 2026-04-11 18:06 | 32.80264 | 35.06536 | 786 ft | 101 kts | 160° |
| 2026-04-11 18:07 | 32.79632 | 35.06863 | 806 ft | 99 kts | 146° |
| 2026-04-11 18:07 | 32.79050 | 35.07147 | 723 ft | 99 kts | 216° |
| 2026-04-11 18:07 | 32.78620 | 35.06519 | 644 ft | 99 kts | 243° |
| 2026-04-11 18:07 | 32.78295 | 35.05782 | 536 ft | 99 kts | 260° |
| 2026-04-11 18:08 | 32.78561 | 35.05176 | 495 ft | 95 kts | 351° |
| 2026-04-11 18:08 | 32.79236 | 35.05105 | 380 ft | 94 kts | 340° |
| 2026-04-11 18:08 | 32.79751 | 35.04914 | 227 ft | 68 kts | 340° |
| 2026-04-11 18:08 | 32.80178 | 35.04732 | 113 ft | 66 kts | 334° |
| 2026-04-11 18:09 | 32.80614 | 35.04545 | 21 ft | 59 kts | 337° |
| 2026-04-11 18:09 | 32.80961 | 35.04387 | 13 ft | 66 kts | 341° |
| 2026-04-11 18:09 | 32.81457 | 35.04161 | 162 ft | 79 kts | 328° |
| 2026-04-11 18:09 | 32.81998 | 35.03898 | 378 ft | 88 kts | 348° |
| 2026-04-11 18:10 | 32.82627 | 35.03998 | 610 ft | 102 kts | 43° |
| 2026-04-11 18:10 | 32.82563 | 35.04823 | 640 ft | 119 kts | 130° |
| 2026-04-11 18:10 | 32.81866 | 35.05381 | 672 ft | 122 kts | 154° |
| 2026-04-11 18:10 | 32.81111 | 35.05864 | 696 ft | 120 kts | 155° |
| 2026-04-11 18:11 | 32.80362 | 35.06266 | 563 ft | 119 kts | 161° |
| 2026-04-11 18:11 | 32.79644 | 35.06687 | 525 ft | 109 kts | 150° |
| 2026-04-11 18:11 | 32.79090 | 35.07242 | 515 ft | 96 kts | 144° |
| 2026-04-11 18:11 | 32.78502 | 35.07446 | 425 ft | 90 kts | 190° |
| 2026-04-11 18:12 | 32.77988 | 35.07124 | 381 ft | 85 kts | 252° |
| 2026-04-11 18:12 | 32.77982 | 35.06427 | 295 ft | 90 kts | 297° |
| 2026-04-11 18:12 | 32.78263 | 35.05767 | 372 ft | 97 kts | 296° |
| 2026-04-11 18:12 | 32.78745 | 35.05278 | 348 ft | 97 kts | 337° |
| 2026-04-11 18:13 | 32.79407 | 35.05033 | 260 ft | 102 kts | 342° |
| 2026-04-11 18:13 | 32.80026 | 35.04801 | 196 ft | 82 kts | 336° |
| 2026-04-11 18:13 | 32.80480 | 35.04615 | 52 ft | 64 kts | 335° |
| 2026-04-11 18:13 | 32.80878 | 35.04428 | 12 ft | 46 kts | 340° |
| 2026-04-11 18:14 | 32.81064 | 35.04366 | 12 ft | 12 kts | 30° |
| 2026-04-11 18:14 | 32.81095 | 35.04435 | 13 ft | 8 kts | 70° |
| 2026-04-11 18:14 | 32.81123 | 35.04505 | 13 ft | 10 kts | 2° |
| 2026-04-11 18:14 | 32.81147 | 35.04498 | 14 ft | 0 kts | 338° |